Time;durP1;ratioP1;P1;durP2;ratioP2;P2;SDS_P1;SDS_P2;PMS_P1;PMS_P2;Temp;Humidity;BMP_temperature;BMP_pressure;BME280_temperature;BME280_humidity;BME280_pressure;Samples;Min_cycle;Max_cycle;Signal;HPM_P1;HPM_P2
2023/11/09 00:01:56;;;;;;;12.82;6.88;;;5.20;1.00;;;;;;7390298;19;20031;-71
2023/11/09 00:04:26;;;;;;;8.38;6.13;;;5.10;1.00;;;;;;7390197;19;20090;-72
2023/11/09 00:06:56;;;;;;;11.60;6.95;;;5.10;1.00;;;;;;7389685;19;20014;-72
2023/11/09 00:09:29;;;;;;;8.00;6.07;;;5.10;1.00;;;;;;7389704;19;20031;-71
2023/11/09 00:11:59;;;;;;;8.98;6.00;;;5.20;1.00;;;;;;7390106;19;20017;-72
2023/11/09 00:14:29;;;;;;;9.10;5.80;;;5.10;1.00;;;;;;7389416;19;20352;-72
2023/11/09 00:16:59;;;;;;;9.55;5.80;;;5.00;1.00;;;;;;7390412;19;20006;-72
2023/11/09 00:19:29;;;;;;;8.70;5.95;;;5.10;1.00;;;;;;7390061;19;20090;-71
2023/11/09 00:21:59;;;;;;;12.45;5.95;;;5.00;1.00;;;;;;7388813;19;20087;-72
2023/11/09 00:24:31;;;;;;;8.85;6.15;;;5.10;1.00;;;;;;7388363;19;20006;-71
2023/11/09 00:27:02;;;;;;;9.32;5.47;;;5.10;1.00;;;;;;7382346;19;20022;-71
2023/11/09 00:29:35;;;;;;;9.80;5.47;;;5.20;1.00;;;;;;7381692;19;20011;-71
2023/11/09 00:32:05;;;;;;;8.93;5.40;;;5.20;1.00;;;;;;7379297;19;20025;-72
2023/11/09 00:34:35;;;;;;;6.85;5.13;;;5.10;1.00;;;;;;7378387;19;20126;-72
2023/11/09 00:37:05;;;;;;;7.90;5.32;;;5.10;1.00;;;;;;7382070;19;20010;-71
2023/11/09 00:39:39;;;;;;;8.05;5.78;;;5.10;1.00;;;;;;7382764;19;20728;-71
2023/11/09 00:42:07;;;;;;;7.22;5.47;;;5.00;1.00;;;;;;7378053;19;20006;-72
2023/11/09 00:44:37;;;;;;;8.63;5.28;;;5.10;1.00;;;;;;7384121;19;20742;-71
2023/11/09 00:47:07;;;;;;;7.68;4.90;;;5.00;1.00;;;;;;7382082;19;20017;-72
2023/11/09 00:49:39;;;;;;;6.93;5.30;;;5.00;1.00;;;;;;7380526;19;20059;-72
2023/11/09 00:52:09;;;;;;;8.82;5.00;;;5.00;1.00;;;;;;7383426;19;20077;-73
2023/11/09 00:54:42;;;;;;;9.93;5.55;;;5.00;1.00;;;;;;7381471;19;20014;-72
2023/11/09 00:57:12;;;;;;;6.40;5.10;;;5.00;1.00;;;;;;7382764;19;20041;-72
2023/11/09 00:59:46;;;;;;;11.23;5.70;;;5.00;1.00;;;;;;7381797;19;20018;-73
2023/11/09 01:02:16;;;;;;;6.85;5.13;;;5.00;1.00;;;;;;7381288;19;20015;-72
2023/11/09 01:04:46;;;;;;;8.82;5.10;;;5.10;1.00;;;;;;7380079;19;20014;-72
2023/11/09 01:07:16;;;;;;;8.00;5.25;;;5.00;1.00;;;;;;7382033;19;20014;-72
2023/11/09 01:09:49;;;;;;;7.95;5.10;;;5.00;1.00;;;;;;7381178;19;20085;-72
2023/11/09 01:12:19;;;;;;;6.20;4.93;;;5.00;1.00;;;;;;7381498;19;20018;-72
2023/11/09 01:14:49;;;;;;;8.52;5.10;;;5.00;1.00;;;;;;7380155;19;20097;-72
2023/11/09 01:17:19;;;;;;;9.25;4.55;;;5.10;1.00;;;;;;7380806;19;20019;-72
2023/11/09 01:19:49;;;;;;;6.93;4.75;;;5.00;1.00;;;;;;7381172;19;20018;-72
2023/11/09 01:22:19;;;;;;;7.43;5.20;;;5.00;1.00;;;;;;7380047;19;20018;-72
2023/11/09 01:24:52;;;;;;;7.82;4.60;;;5.00;1.00;;;;;;7379496;19;20014;-71
2023/11/09 01:27:22;;;;;;;9.27;5.40;;;5.10;1.00;;;;;;7381083;19;20015;-72
2023/11/09 01:29:52;;;;;;;10.80;5.35;;;5.20;1.00;;;;;;7379177;19;20006;-71
2023/11/09 01:32:22;;;;;;;9.30;5.50;;;5.40;1.00;;;;;;7380277;19;20022;-72
2023/11/09 01:34:52;;;;;;;10.40;5.85;;;5.40;1.00;;;;;;7378931;19;20011;-72
2023/11/09 01:37:22;;;;;;;10.88;5.85;;;5.50;1.00;;;;;;7379850;19;20818;-71
2023/11/09 01:39:54;;;;;;;9.23;5.07;;;5.50;1.00;;;;;;7379741;19;20010;-72
2023/11/09 01:42:24;;;;;;;8.68;5.15;;;5.70;1.00;;;;;;7380475;19;20013;-72
2023/11/09 01:44:54;;;;;;;7.85;4.50;;;5.70;1.00;;;;;;7378758;19;20018;-72
2023/11/09 01:47:25;;;;;;;7.57;5.20;;;5.60;1.00;;;;;;7380417;19;20032;-72
2023/11/09 01:49:55;;;;;;;8.60;5.47;;;5.60;1.00;;;;;;7379481;19;20027;-72
2023/11/09 01:52:25;;;;;;;9.95;4.80;;;5.70;1.00;;;;;;7380519;19;20039;-72
2023/11/09 01:54:58;;;;;;;9.75;5.70;;;5.70;1.00;;;;;;7379591;19;20014;-72
2023/11/09 01:57:28;;;;;;;7.15;5.40;;;5.70;1.00;;;;;;7379530;19;20039;-71
2023/11/09 01:59:59;;;;;;;7.25;5.68;;;5.60;1.00;;;;;;7378867;19;20011;-70
2023/11/09 02:02:30;;;;;;;9.68;5.72;;;5.60;1.00;;;;;;7380160;19;20054;-70
2023/11/09 02:05:01;;;;;;;8.60;6.10;;;5.70;1.00;;;;;;7379973;19;20039;-72
2023/11/09 02:07:31;;;;;;;10.48;5.68;;;5.60;1.00;;;;;;7381029;19;20066;-72
2023/11/09 02:10:06;;;;;;;9.13;5.72;;;5.60;1.00;;;;;;7380391;19;20373;-72
2023/11/09 02:12:38;;;;;;;9.77;5.00;;;5.50;1.00;;;;;;7381063;19;20033;-71
2023/11/09 02:15:09;;;;;;;11.02;5.60;;;5.50;1.00;;;;;;7379960;19;20083;-70
2023/11/09 02:17:39;;;;;;;9.02;6.18;;;5.60;1.00;;;;;;7380961;19;20010;-71
2023/11/09 02:20:13;;;;;;;7.45;5.88;;;5.60;1.00;;;;;;7380741;19;20021;-71
2023/11/09 02:22:55;;;;;;;8.82;5.90;;;5.50;1.00;;;;;;7378971;19;20483;-72
2023/11/09 02:25:28;;;;;;;10.65;6.78;;;5.50;1.00;;;;;;7389307;19;20026;-71
2023/11/09 02:27:58;;;;;;;8.77;5.80;;;5.40;1.00;;;;;;7380172;19;20007;-71
2023/11/09 02:30:28;;;;;;;10.25;5.82;;;5.40;1.00;;;;;;7378284;19;20014;-71
2023/11/09 02:32:58;;;;;;;9.18;6.35;;;5.40;1.00;;;;;;7379335;19;20016;-72
2023/11/09 02:35:28;;;;;;;9.48;6.18;;;5.30;1.00;;;;;;7377539;19;20021;-70
2023/11/09 02:37:58;;;;;;;14.90;6.28;;;5.30;1.00;;;;;;7378818;19;20011;-72
2023/11/09 02:40:31;;;;;;;9.30;6.05;;;5.40;1.00;;;;;;7380492;19;20016;-72
2023/11/09 02:43:00;;;;;;;10.38;5.85;;;5.30;1.00;;;;;;7379262;19;20538;-72
2023/11/09 02:45:30;;;;;;;7.47;5.22;;;5.30;1.00;;;;;;7377908;19;20035;-72
2023/11/09 02:48:00;;;;;;;9.85;5.07;;;5.30;1.00;;;;;;7378167;19;20085;-72
2023/11/09 02:50:30;;;;;;;6.93;5.07;;;5.40;1.00;;;;;;7379373;19;20010;-72
2023/11/09 02:53:00;;;;;;;7.13;4.45;;;5.40;1.00;;;;;;7379651;19;20039;-72
2023/11/09 02:55:33;;;;;;;7.82;4.85;;;5.40;1.00;;;;;;7376222;19;20500;-70
2023/11/09 02:58:03;;;;;;;6.80;4.50;;;5.40;1.00;;;;;;7379624;19;20018;-70
2023/11/09 03:00:35;;;;;;;6.90;4.55;;;5.40;1.00;;;;;;7378150;19;23921;-71
2023/11/09 03:03:05;;;;;;;7.25;4.35;;;5.40;1.00;;;;;;7378730;19;20003;-70
2023/11/09 03:05:35;;;;;;;7.47;5.20;;;5.30;1.00;;;;;;7376574;19;20363;-71
2023/11/09 03:08:05;;;;;;;9.98;5.30;;;5.20;1.00;;;;;;7377925;19;20074;-71
2023/11/09 03:10:38;;;;;;;7.72;4.78;;;5.30;1.00;;;;;;7377997;19;20015;-71
2023/11/09 03:13:07;;;;;;;10.10;5.35;;;5.30;1.00;;;;;;7377685;19;20086;-70
2023/11/09 03:15:39;;;;;;;10.25;5.95;;;5.30;1.00;;;;;;7377089;19;20014;-71
2023/11/09 03:18:09;;;;;;;9.55;6.15;;;5.40;1.00;;;;;;7378724;19;20113;-71
2023/11/09 03:20:41;;;;;;;10.30;7.22;;;5.30;1.00;;;;;;7377929;19;20015;-70
2023/11/09 03:23:11;;;;;;;15.70;8.95;;;5.30;1.00;;;;;;7376548;19;20015;-70
2023/11/09 03:25:43;;;;;;;11.15;6.90;;;5.30;1.00;;;;;;7373634;19;20011;-71
2023/11/09 03:28:13;;;;;;;7.38;4.60;;;5.30;1.00;;;;;;7378631;19;20032;-72
2023/11/09 03:30:43;;;;;;;8.52;5.10;;;5.30;1.00;;;;;;7378947;19;20121;-71
2023/11/09 03:33:14;;;;;;;7.78;4.78;;;5.20;1.00;;;;;;7378766;19;20006;-72
2023/11/09 03:35:44;;;;;;;6.50;4.60;;;5.20;1.00;;;;;;7377410;19;20094;-72
2023/11/09 03:38:14;;;;;;;7.28;4.55;;;5.20;1.00;;;;;;7377535;19;20010;-71
2023/11/09 03:40:46;;;;;;;9.13;5.82;;;5.10;1.00;;;;;;7377456;19;20463;-72
2023/11/09 03:43:16;;;;;;;9.43;5.45;;;5.10;1.00;;;;;;7375877;19;20093;-73
2023/11/09 03:45:44;;;;;;;6.38;4.90;;;5.10;1.00;;;;;;7375123;19;20014;-73
2023/11/09 03:48:14;;;;;;;7.63;4.57;;;5.10;1.00;;;;;;7374891;19;20016;-71
2023/11/09 03:50:45;;;;;;;5.60;4.22;;;5.00;1.00;;;;;;7372342;19;20013;-72
2023/11/09 03:53:15;;;;;;;8.60;4.30;;;5.00;1.00;;;;;;7377897;19;20089;-71
2023/11/09 03:55:47;;;;;;;9.05;4.30;;;5.00;1.00;;;;;;7374077;19;20420;-72
2023/11/09 03:58:17;;;;;;;6.45;4.13;;;5.10;1.00;;;;;;7371847;19;20006;-72
2023/11/09 04:00:47;;;;;;;6.43;3.80;;;5.10;1.00;;;;;;7374502;19;20002;-71
2023/11/09 04:03:17;;;;;;;8.98;3.80;;;5.20;1.00;;;;;;7381786;19;20479;-71
2023/11/09 04:05:47;;;;;;;5.57;4.15;;;5.20;1.00;;;;;;7382268;19;20009;-71
2023/11/09 04:08:18;;;;;;;4.28;3.20;;;5.30;1.00;;;;;;7384029;19;20010;-72
2023/11/09 04:10:51;;;;;;;5.68;3.13;;;5.30;1.00;;;;;;7381991;19;20014;-72
2023/11/09 04:13:21;;;;;;;4.38;3.15;;;5.30;1.00;;;;;;7381171;19;20002;-71
2023/11/09 04:15:51;;;;;;;5.03;3.30;;;5.50;1.00;;;;;;7380335;19;20018;-71
2023/11/09 04:18:21;;;;;;;5.10;3.45;;;5.70;1.00;;;;;;7382104;19;20006;-71
2023/11/09 04:20:51;;;;;;;4.80;3.08;;;5.70;1.00;;;;;;7382353;19;20044;-73
2023/11/09 04:23:21;;;;;;;6.28;3.47;;;5.60;1.00;;;;;;7380702;19;20013;-71
2023/11/09 04:25:54;;;;;;;5.75;3.03;;;5.60;1.00;;;;;;7381702;19;20006;-72
2023/11/09 04:28:23;;;;;;;4.45;2.72;;;5.70;1.00;;;;;;7383334;19;20089;-72
2023/11/09 04:30:56;;;;;;;6.55;3.45;;;5.70;1.00;;;;;;7382074;19;20082;-71
2023/11/09 04:33:26;;;;;;;6.32;3.10;;;5.80;1.00;;;;;;7382505;19;20014;-72
2023/11/09 04:35:57;;;;;;;3.70;2.95;;;5.90;1.00;;;;;;7382194;19;20017;-71
2023/11/09 04:38:30;;;;;;;6.22;3.78;;;5.80;1.00;;;;;;7382205;19;20014;-72
2023/11/09 04:41:06;;;;;;;5.80;3.30;;;5.90;1.00;;;;;;7380386;19;20006;-71
2023/11/09 04:43:37;;;;;;;8.27;4.30;;;5.90;1.00;;;;;;7380589;19;20395;-71
2023/11/09 04:46:11;;;;;;;7.38;3.72;;;5.70;1.00;;;;;;7382155;19;20098;-71
2023/11/09 04:48:44;;;;;;;5.45;3.72;;;5.70;1.00;;;;;;7382776;19;20086;-71
2023/11/09 04:51:22;;;;;;;6.05;3.78;;;5.70;1.00;;;;;;7380726;19;20036;-71
2023/11/09 04:53:56;;;;;;;5.40;3.30;;;5.70;1.00;;;;;;7376297;19;20018;-71
2023/11/09 04:56:39;;;;;;;6.78;4.18;;;5.70;1.00;;;;;;7380889;19;20013;-71
2023/11/09 05:07:17;;;;;;;6.07;3.55;;;5.70;1.00;;;;;;7380418;19;20100;-74
2023/11/09 05:09:47;;;;;;;4.40;3.42;;;5.80;1.00;;;;;;7380987;19;20006;-74
2023/11/09 05:12:20;;;;;;;5.07;3.30;;;5.80;1.00;;;;;;7382341;19;20018;-71
2023/11/09 05:14:51;;;;;;;4.97;3.45;;;5.80;1.00;;;;;;7377821;19;20018;-72
2023/11/09 05:17:22;;;;;;;5.32;3.53;;;5.80;1.00;;;;;;7380225;19;20015;-71
2023/11/09 05:19:52;;;;;;;6.60;4.72;;;5.80;1.00;;;;;;7382685;19;20357;-72
2023/11/09 05:22:22;;;;;;;7.57;4.32;;;5.80;1.00;;;;;;7380166;19;20014;-72
2023/11/09 05:24:52;;;;;;;7.75;4.15;;;5.80;1.00;;;;;;7382112;19;20032;-72
2023/11/09 05:27:26;;;;;;;6.65;4.10;;;5.80;1.00;;;;;;7380390;19;20017;-72
2023/11/09 05:29:56;;;;;;;9.80;4.60;;;5.80;1.00;;;;;;7381272;19;20089;-72
2023/11/09 05:32:26;;;;;;;6.85;4.70;;;5.80;1.00;;;;;;7380951;19;20489;-72
2023/11/09 05:34:56;;;;;;;10.27;4.53;;;5.80;1.00;;;;;;7380040;19;20027;-72
2023/11/09 05:37:26;;;;;;;7.47;4.50;;;5.80;1.00;;;;;;7381414;19;20086;-70
2023/11/09 05:39:56;;;;;;;7.95;4.28;;;5.80;1.00;;;;;;7380076;19;20026;-71
2023/11/09 05:42:28;;;;;;;6.20;4.00;;;5.80;1.00;;;;;;7380791;19;20013;-70
2023/11/09 05:45:01;;;;;;;6.80;4.55;;;5.70;1.00;;;;;;7378981;19;20081;-72
2023/11/09 05:47:31;;;;;;;7.63;4.30;;;5.80;1.00;;;;;;7381012;19;20081;-70
2023/11/09 05:50:01;;;;;;;8.68;4.45;;;5.80;1.00;;;;;;7385000;19;20022;-71
2023/11/09 05:52:32;;;;;;;7.18;4.63;;;5.70;1.00;;;;;;7380504;19;20021;-72
2023/11/09 05:55:04;;;;;;;7.40;4.95;;;5.80;1.00;;;;;;7379122;19;20007;-71
2023/11/09 05:57:38;;;;;;;7.00;4.63;;;5.80;1.00;;;;;;7379589;19;20010;-71
2023/11/09 06:00:10;;;;;;;7.72;4.63;;;5.70;1.00;;;;;;7379918;19;20421;-72
2023/11/09 06:02:40;;;;;;;10.43;4.70;;;5.90;1.00;;;;;;7380183;19;20026;-72
2023/11/09 06:05:10;;;;;;;7.00;4.88;;;5.90;1.00;;;;;;7379220;19;20026;-71
2023/11/09 06:07:40;;;;;;;9.10;5.32;;;5.90;1.00;;;;;;7379460;19;20022;-72
2023/11/09 06:10:13;;;;;;;7.25;4.68;;;5.90;1.00;;;;;;7379089;19;20022;-72
2023/11/09 06:12:45;;;;;;;5.30;4.00;;;5.90;1.00;;;;;;7379227;19;20010;-70
2023/11/09 06:15:16;;;;;;;5.60;4.22;;;5.90;1.00;;;;;;7378664;19;20367;-70
2023/11/09 06:17:46;;;;;;;8.82;4.22;;;5.90;1.00;;;;;;7379868;19;20523;-70
2023/11/09 06:20:16;;;;;;;7.88;4.47;;;5.90;1.00;;;;;;7380533;19;20129;-70
2023/11/09 06:22:46;;;;;;;7.32;4.85;;;6.00;1.00;;;;;;7380783;19;20550;-70
2023/11/09 06:25:17;;;;;;;7.40;4.70;;;6.10;1.00;;;;;;7378298;19;20009;-70
2023/11/09 06:27:49;;;;;;;10.63;4.85;;;6.10;1.00;;;;;;7381306;19;20029;-71
2023/11/09 06:30:20;;;;;;;8.98;4.63;;;6.20;1.00;;;;;;7376704;19;20014;-71
2023/11/09 06:32:50;;;;;;;8.30;4.25;;;6.20;1.00;;;;;;7378324;19;20006;-71
2023/11/09 06:35:20;;;;;;;7.93;4.60;;;6.30;1.00;;;;;;7379662;19;20325;-72
2023/11/09 06:37:50;;;;;;;7.40;4.22;;;6.40;1.00;;;;;;7379538;19;20085;-71
2023/11/09 06:40:20;;;;;;;7.28;5.10;;;6.40;1.00;;;;;;7374897;19;20446;-72
2023/11/09 06:42:52;;;;;;;11.30;4.70;;;6.50;1.00;;;;;;7375289;19;20006;-71
2023/11/09 06:45:23;;;;;;;6.10;4.50;;;6.60;1.00;;;;;;7376888;19;20477;-71
2023/11/09 06:47:53;;;;;;;5.53;4.10;;;6.60;1.00;;;;;;7375210;19;20029;-70
2023/11/09 06:50:23;;;;;;;5.47;3.97;;;6.60;1.00;;;;;;7375996;19;20535;-71
2023/11/09 06:52:55;;;;;;;5.28;4.28;;;6.70;1.00;;;;;;7379018;19;20009;-71
2023/11/09 06:55:28;;;;;;;7.55;4.43;;;6.70;1.00;;;;;;7371753;19;20055;-72
2023/11/09 06:58:01;;;;;;;11.43;4.95;;;6.70;1.00;;;;;;7378997;19;20011;-71
2023/11/09 07:00:31;;;;;;;6.00;4.25;;;6.90;1.00;;;;;;7379229;19;20562;-72
2023/11/09 07:03:01;;;;;;;11.20;4.22;;;7.00;1.00;;;;;;7378225;19;20019;-71
2023/11/09 07:05:31;;;;;;;7.22;4.15;;;7.10;1.00;;;;;;7377375;19;20014;-70
2023/11/09 07:08:01;;;;;;;7.63;4.18;;;7.10;1.00;;;;;;7377286;19;20066;-71
2023/11/09 07:10:33;;;;;;;6.82;3.70;;;7.20;1.00;;;;;;7377916;19;20011;-72
2023/11/09 07:13:05;;;;;;;5.93;4.13;;;7.20;1.00;;;;;;7377248;19;20114;-72
2023/11/09 07:15:39;;;;;;;9.93;4.18;;;7.30;1.00;;;;;;7376562;19;20014;-72
2023/11/09 07:18:10;;;;;;;6.15;3.70;;;7.30;1.00;;;;;;7376830;19;20033;-72
2023/11/09 07:20:40;;;;;;;6.38;3.35;;;7.30;1.00;;;;;;7377450;19;20408;-71
2023/11/09 07:23:11;;;;;;;7.03;3.95;;;7.40;1.00;;;;;;7380420;19;20035;-71
2023/11/09 07:25:40;;;;;;;6.80;3.35;;;7.40;1.00;;;;;;7379231;19;20033;-72
2023/11/09 07:28:13;;;;;;;6.47;3.65;;;7.40;1.00;;;;;;7376365;19;20014;-71
2023/11/09 07:30:48;;;;;;;9.32;4.20;;;7.40;1.00;;;;;;7377341;19;20027;-71
2023/11/09 07:33:18;;;;;;;11.65;5.10;;;7.40;1.00;;;;;;7376527;19;20014;-71
2023/11/09 07:35:48;;;;;;;7.68;4.80;;;7.40;1.00;;;;;;7380903;19;20011;-70
2023/11/09 07:38:19;;;;;;;7.03;3.83;;;7.40;1.00;;;;;;7383852;19;20074;-72
2023/11/09 07:40:49;;;;;;;11.07;3.67;;;7.50;1.00;;;;;;7385094;19;20050;-72
2023/11/09 07:43:23;;;;;;;4.43;2.13;;;7.70;1.00;;;;;;7381998;19;20573;-71
2023/11/09 07:45:54;;;;;;;3.20;1.40;;;8.10;1.00;;;;;;7385729;19;20010;-71
2023/11/09 07:48:26;;;;;;;4.72;1.50;;;8.60;1.00;;;;;;7384389;19;20497;-71
2023/11/09 07:50:56;;;;;;;3.38;1.67;;;8.70;1.00;;;;;;7385175;19;20011;-70
2023/11/09 07:53:26;;;;;;;3.45;1.40;;;8.80;1.00;;;;;;7384295;19;20014;-71
2023/11/09 07:55:56;;;;;;;2.03;1.40;;;8.90;1.00;;;;;;7380861;19;20010;-71
2023/11/09 07:58:34;;;;;;;3.10;1.60;;;8.90;1.00;;;;;;7377814;19;20015;-71
2023/11/09 08:01:06;;;;;;;4.13;1.50;;;8.90;1.00;;;;;;7384291;19;20684;-72
2023/11/09 08:03:36;;;;;;;2.22;1.42;;;8.80;1.00;;;;;;7380721;19;20014;-72
2023/11/09 08:06:07;;;;;;;3.95;1.70;;;8.70;1.00;;;;;;7382156;19;20078;-72
2023/11/09 08:08:39;;;;;;;2.58;1.75;;;8.70;1.00;;;;;;7382671;19;20017;-71
2023/11/09 08:11:11;;;;;;;2.45;1.55;;;8.70;1.00;;;;;;7382984;19;20013;-71
2023/11/09 08:13:43;;;;;;;2.53;1.70;;;8.70;1.00;;;;;;7381843;19;20018;-71
2023/11/09 08:16:13;;;;;;;1.70;1.20;;;8.70;1.00;;;;;;7383364;19;20013;-72
2023/11/09 08:18:46;;;;;;;1.95;1.40;;;8.80;1.00;;;;;;7383654;19;20014;-72
2023/11/09 08:21:16;;;;;;;17.15;9.88;;;8.70;1.00;;;;;;7382370;19;20014;-72
2023/11/09 08:23:46;;;;;;;3.33;1.70;;;8.80;1.00;;;;;;7383119;19;20027;-71
2023/11/09 08:26:16;;;;;;;1.90;1.25;;;8.90;1.00;;;;;;7382634;19;20007;-72
2023/11/09 08:28:49;;;;;;;2.00;1.27;;;9.00;1.00;;;;;;7382964;19;20510;-72
2023/11/09 08:31:19;;;;;;;2.17;1.70;;;9.00;1.00;;;;;;7382192;19;20472;-71
2023/11/09 08:33:49;;;;;;;4.20;1.60;;;9.20;1.00;;;;;;7381949;19;20320;-72
2023/11/09 08:36:20;;;;;;;1.73;1.30;;;9.20;1.00;;;;;;7381713;19;20010;-72
2023/11/09 08:38:49;;;;;;;2.55;1.30;;;9.30;1.00;;;;;;7384048;19;20003;-72
2023/11/09 08:41:21;;;;;;;4.07;1.40;;;9.40;1.00;;;;;;7380235;19;20006;-73
2023/11/09 08:43:54;;;;;;;1.92;1.10;;;9.40;1.00;;;;;;7382258;19;20042;-71
2023/11/09 08:46:24;;;;;;;2.50;1.48;;;9.40;1.00;;;;;;7382117;19;20071;-72
2023/11/09 08:48:54;;;;;;;1.70;1.20;;;9.40;1.00;;;;;;7380571;19;20010;-72
2023/11/09 08:51:24;;;;;;;2.20;1.48;;;9.40;1.00;;;;;;7380683;19;20364;-71
2023/11/09 08:53:54;;;;;;;3.58;1.50;;;9.50;1.00;;;;;;7380873;19;20014;-71
2023/11/09 08:56:26;;;;;;;2.00;1.40;;;9.60;1.00;;;;;;7382687;19;20020;-71
2023/11/09 08:58:59;;;;;;;3.28;1.20;;;9.60;1.00;;;;;;7382635;19;20027;-72
2023/11/09 09:01:29;;;;;;;2.40;1.50;;;9.60;1.00;;;;;;7381182;19;20017;-71
2023/11/09 09:03:59;;;;;;;3.80;1.60;;;9.60;1.00;;;;;;7379710;19;20010;-71
2023/11/09 09:06:29;;;;;;;2.13;1.50;;;9.60;1.00;;;;;;7383307;19;20014;-71
2023/11/09 09:08:59;;;;;;;3.85;1.92;;;9.60;1.00;;;;;;7391518;19;20051;-70
2023/11/09 09:11:31;;;;;;;2.35;1.70;;;9.50;1.00;;;;;;7380169;19;20011;-71
2023/11/09 09:14:04;;;;;;;3.08;1.40;;;9.50;1.00;;;;;;7381452;19;20015;-72
2023/11/09 09:16:36;;;;;;;2.78;1.70;;;9.50;1.00;;;;;;7377367;19;20455;-72
2023/11/09 09:19:08;;;;;;;2.92;1.60;;;9.60;1.00;;;;;;7380242;19;20015;-72
2023/11/09 09:21:39;;;;;;;2.00;1.25;;;9.60;1.00;;;;;;7381575;19;20014;-72
2023/11/09 09:24:11;;;;;;;3.30;1.58;;;9.70;1.00;;;;;;7379067;19;20077;-72
2023/11/09 09:26:41;;;;;;;2.00;1.55;;;9.70;1.00;;;;;;7381436;19;20006;-72
2023/11/09 09:29:13;;;;;;;3.25;1.67;;;9.70;1.00;;;;;;7378681;19;20003;-72
2023/11/09 09:31:43;;;;;;;2.30;1.63;;;9.70;1.00;;;;;;7379174;19;20033;-71
2023/11/09 09:34:23;;;;;;;2.00;1.40;;;9.70;1.00;;;;;;7379590;19;20011;-71
2023/11/09 09:36:58;;;;;;;2.42;1.50;;;9.70;1.00;;;;;;7380524;19;20026;-71
2023/11/09 09:39:28;;;;;;;;;;;9.70;1.00;;;;;;7381937;19;20036;-71
2023/11/09 09:41:59;;;;;;;2.17;1.20;;;9.70;1.00;;;;;;7381725;19;20686;-71
2023/11/09 09:44:33;;;;;;;2.47;1.77;;;9.70;1.00;;;;;;7377780;19;20055;-71
2023/11/09 09:47:04;;;;;;;2.53;1.80;;;9.80;1.00;;;;;;7380291;19;20063;-72
2023/11/09 09:49:34;;;;;;;6.72;1.85;;;9.80;1.00;;;;;;7380970;19;20031;-70
2023/11/09 09:52:07;;;;;;;3.67;2.00;;;9.80;1.00;;;;;;7381926;19;20010;-72
2023/11/09 09:54:41;;;;;;;2.03;1.50;;;9.90;1.00;;;;;;7375507;19;20379;-72
2023/11/09 09:57:11;;;;;;;4.15;2.05;;;9.90;1.00;;;;;;7381264;19;20031;-71
2023/11/09 09:59:44;;;;;;;3.05;2.42;;;9.90;1.00;;;;;;7375937;19;20074;-72
2023/11/09 10:02:17;;;;;;;2.22;2.03;;;10.10;1.00;;;;;;7379424;19;20010;-72
2023/11/09 10:04:47;;;;;;;5.00;1.60;;;10.20;1.00;;;;;;7376864;19;20014;-72
2023/11/09 10:07:17;;;;;;;5.53;1.30;;;10.30;1.00;;;;;;7379461;19;20082;-71
2023/11/09 10:09:50;;;;;;;2.88;1.38;;;10.40;1.00;;;;;;7377532;19;20089;-72
2023/11/09 10:12:21;;;;;;;3.05;1.40;;;10.40;1.00;;;;;;7380010;19;20010;-70
2023/11/09 10:14:53;;;;;;;4.90;1.55;;;10.50;1.00;;;;;;7378309;19;20011;-71
2023/11/09 10:17:23;;;;;;;2.00;1.65;;;10.60;1.00;;;;;;7379087;19;20007;-71
2023/11/09 10:19:53;;;;;;;3.10;1.83;;;10.60;1.00;;;;;;7378042;19;20409;-71
2023/11/09 10:22:23;;;;;;;2.42;1.77;;;10.70;1.00;;;;;;7378042;19;20014;-71
2023/11/09 10:24:54;;;;;;;2.97;1.92;;;10.70;1.00;;;;;;7376706;19;20348;-71
2023/11/09 10:27:30;;;;;;;5.38;2.47;;;10.80;1.00;;;;;;7378957;19;20002;-71
2023/11/09 10:30:03;;;;;;;6.55;2.30;;;10.80;1.00;;;;;;7376405;19;22456;-72
2023/11/09 10:32:36;;;;;;;4.00;1.75;;;10.90;1.00;;;;;;7380152;19;20082;-72
2023/11/09 10:35:07;;;;;;;1.90;1.50;;;11.10;1.00;;;;;;7376733;19;20010;-72
2023/11/09 10:37:40;;;;;;;2.40;1.60;;;11.20;1.00;;;;;;7376369;19;20046;-73
2023/11/09 10:40:13;;;;;;;1.83;1.30;;;11.20;1.00;;;;;;7377364;19;20032;-72
2023/11/09 10:42:44;;;;;;;2.03;1.30;;;11.40;1.00;;;;;;7377631;19;20014;-73
2023/11/09 10:45:25;;;;;;;1.90;1.02;;;11.40;1.00;;;;;;7377114;19;20042;-72
2023/11/09 10:47:59;;;;;;;4.43;1.20;;;11.50;1.00;;;;;;7376987;19;20010;-72
2023/11/09 10:50:32;;;;;;;2.67;1.15;;;11.50;1.00;;;;;;7377194;19;20014;-72
2023/11/09 10:53:03;;;;;;;3.33;1.00;;;11.50;1.00;;;;;;7377571;19;20508;-73
2023/11/09 10:55:34;;;;;;;6.45;1.08;;;11.60;1.00;;;;;;7377102;19;20062;-72
2023/11/09 10:58:05;;;;;;;3.30;1.13;;;11.70;1.00;;;;;;7379130;19;20409;-72
2023/11/09 11:00:42;;;;;;;1.90;1.20;;;11.80;1.00;;;;;;7378862;19;20010;-73
2023/11/09 11:03:19;;;;;;;1.70;1.25;;;11.70;1.00;;;;;;7375639;19;20010;-72
2023/11/09 11:05:53;;;;;;;2.05;1.30;;;11.80;1.00;;;;;;7377514;19;20155;-72
2023/11/09 11:08:26;;;;;;;2.23;1.57;;;11.80;1.00;;;;;;7376834;19;20007;-72
2023/11/09 11:10:56;;;;;;;11.38;8.15;;;11.80;1.00;;;;;;7375127;19;20032;-71
2023/11/09 11:13:28;;;;;;;5.07;4.40;;;12.00;1.00;;;;;;7374439;19;20018;-72
2023/11/09 11:16:20;;;;;;;1.67;0.93;;;12.10;1.00;;;;;;7375252;19;20034;-72
2023/11/09 11:19:07;;;;;;;2.13;1.17;;;12.00;1.00;;;;;;6865777;19;2004183;-71
2023/11/09 11:21:52;;;;;;;1.65;1.25;;;12.00;1.00;;;;;;7374832;19;20018;-71
2023/11/09 11:24:53;;;;;;;2.90;1.35;;;12.10;1.00;;;;;;6864152;19;2005403;-71
2023/11/09 11:27:41;;;;;;;2.55;1.27;;;12.20;1.00;;;;;;6866237;19;2004768;-71
2023/11/09 11:30:26;;;;;;;1.40;0.93;;;12.30;1.00;;;;;;7374489;19;20011;-71
2023/11/09 11:33:00;;;;;;;1.20;0.80;;;12.40;1.00;;;;;;7376109;19;20023;-71
2023/11/09 11:35:34;;;;;;;1.52;0.70;;;12.40;1.00;;;;;;7374598;19;20030;-70
2023/11/09 11:38:21;;;;;;;3.75;0.90;;;12.40;1.00;;;;;;7376534;19;20011;-71
2023/11/09 11:40:54;;;;;;;1.35;0.57;;;12.40;1.00;;;;;;6863879;19;2004240;-71
2023/11/09 11:43:36;;;;;;;1.35;0.80;;;12.50;1.00;;;;;;7374804;19;20034;-71
2023/11/09 11:46:11;;;;;;;1.42;0.77;;;12.50;1.00;;;;;;7375832;19;20387;-71
2023/11/09 11:48:52;;;;;;;1.83;0.60;;;12.50;1.00;;;;;;7373469;19;20010;-72
2023/11/09 11:51:22;;;;;;;1.42;0.57;;;12.40;1.00;;;;;;7376171;19;20045;-71
2023/11/09 11:54:00;;;;;;;2.58;0.43;;;12.40;1.00;;;;;;7374180;19;20367;-72
2023/11/09 11:56:35;;;;;;;3.80;0.73;;;12.30;1.00;;;;;;7378677;19;20021;-71
2023/11/09 11:59:09;;;;;;;1.38;0.63;;;12.30;1.00;;;;;;7374663;19;20017;-72
2023/11/09 12:01:40;;;;;;;1.38;0.80;;;12.20;1.00;;;;;;7374993;19;20015;-72
2023/11/09 12:04:15;;;;;;;2.03;0.80;;;12.20;1.00;;;;;;7374955;19;20035;-71
2023/11/09 12:06:49;;;;;;;1.70;0.50;;;12.30;1.00;;;;;;7370271;19;20014;-71
2023/11/09 12:09:22;;;;;;;3.50;0.77;;;12.30;1.00;;;;;;7375724;19;20010;-71
2023/11/09 12:11:55;;;;;;;1.45;0.50;;;12.40;1.00;;;;;;7373373;19;20006;-72
2023/11/09 12:14:25;;;;;;;0.93;0.60;;;12.40;1.00;;;;;;7373601;19;20074;-72
2023/11/09 12:16:55;;;;;;;0.60;0.40;;;12.40;1.00;;;;;;7374926;19;20111;-72
2023/11/09 12:19:27;;;;;;;1.75;0.68;;;12.40;1.00;;;;;;7374523;19;20047;-72
2023/11/09 12:21:58;;;;;;;1.58;0.50;;;12.40;1.00;;;;;;7374418;19;20530;-72
2023/11/09 12:24:28;;;;;;;4.03;0.70;;;12.40;1.00;;;;;;7380459;19;20029;-72
2023/11/09 12:27:07;;;;;;;1.05;0.32;;;12.40;1.00;;;;;;7382634;19;20011;-72
2023/11/09 12:29:41;;;;;;;0.80;0.50;;;12.40;1.00;;;;;;7382238;19;20471;-72
2023/11/09 12:32:13;;;;;;;0.95;0.60;;;12.30;1.00;;;;;;7382614;19;20011;-71
2023/11/09 12:34:46;;;;;;;2.13;0.63;;;12.30;1.00;;;;;;7376092;19;20035;-72
2023/11/09 12:37:17;;;;;;;1.02;0.63;;;12.30;1.00;;;;;;7379704;19;20043;-71
2023/11/09 12:39:49;;;;;;;1.40;0.50;;;12.30;1.00;;;;;;7380504;19;20006;-71
2023/11/09 12:42:24;;;;;;;1.05;0.40;;;12.30;1.00;;;;;;7379758;19;20078;-73
2023/11/09 12:44:56;;;;;;;0.75;0.40;;;12.40;1.00;;;;;;7380441;19;20031;-70
2023/11/09 12:47:26;;;;;;;0.73;0.43;;;12.30;1.00;;;;;;7380710;19;20074;-71
2023/11/09 12:50:04;;;;;;;1.02;0.50;;;12.40;1.00;;;;;;7381014;19;20073;-72
2023/11/09 12:52:36;;;;;;;1.25;0.47;;;12.30;1.00;;;;;;7381452;19;20101;-72
2023/11/09 12:55:08;;;;;;;0.95;0.43;;;12.30;1.00;;;;;;7380060;19;20378;-71
2023/11/09 12:57:43;;;;;;;1.10;0.40;;;12.30;1.00;;;;;;7381617;19;20106;-72
2023/11/09 13:00:29;;;;;;;0.82;0.40;;;12.30;1.00;;;;;;7382928;19;20374;-71
2023/11/09 13:03:03;;;;;;;0.90;0.50;;;12.30;1.00;;;;;;6870787;19;2004095;-71
2023/11/09 13:05:39;;;;;;;1.60;0.40;;;12.20;1.00;;;;;;7380203;19;20066;-71
2023/11/09 13:08:12;;;;;;;0.80;0.47;;;12.20;1.00;;;;;;7380585;19;19998;-71
2023/11/09 13:10:49;;;;;;;0.98;0.50;;;12.20;1.00;;;;;;7380730;19;20013;-71
2023/11/09 13:13:24;;;;;;;2.65;0.75;;;12.20;1.00;;;;;;7371816;19;20039;-72
2023/11/09 13:15:56;;;;;;;1.73;0.65;;;12.20;1.00;;;;;;7381168;19;20014;-71
2023/11/09 13:18:28;;;;;;;2.00;0.50;;;12.20;1.00;;;;;;7381348;19;20011;-70
2023/11/09 13:21:01;;;;;;;2.03;0.70;;;12.20;1.00;;;;;;7379974;19;20003;-71
2023/11/09 13:23:39;;;;;;;0.60;0.30;;;12.20;1.00;;;;;;7380733;19;20014;-71
2023/11/09 13:26:09;;;;;;;8.40;4.63;;;12.20;1.00;;;;;;7381783;19;20030;-70
2023/11/09 13:28:43;;;;;;;4.32;1.00;;;12.20;1.00;;;;;;7381332;19;20124;-70
2023/11/09 13:31:21;;;;;;;0.57;0.40;;;12.10;1.00;;;;;;7379840;19;20009;-70
2023/11/09 13:33:51;;;;;;;4.47;0.65;;;12.00;1.00;;;;;;7376493;19;20006;-71
2023/11/09 13:36:37;;;;;;;4.43;1.08;;;12.10;1.00;;;;;;7379606;19;20018;-72